sensor_id;sensor_type;location;lat;lon;timestamp;P1;durP1;ratioP1;P2;durP2;ratioP2
20709;SDS011;10516;51.518;9.864;2023-08-06T00:00:01;9.63;;;5.00;;
20709;SDS011;10516;51.518;9.864;2023-08-06T00:02:28;5.30;;;3.30;;
20709;SDS011;10516;51.518;9.864;2023-08-06T00:04:53;7.78;;;4.07;;
20709;SDS011;10516;51.518;9.864;2023-08-06T00:07:18;5.82;;;3.00;;
20709;SDS011;10516;51.518;9.864;2023-08-06T00:09:44;5.03;;;3.17;;
20709;SDS011;10516;51.518;9.864;2023-08-06T00:12:09;9.02;;;3.60;;
20709;SDS011;10516;51.518;9.864;2023-08-06T00:14:38;7.68;;;3.40;;
20709;SDS011;10516;51.518;9.864;2023-08-06T00:17:07;4.63;;;2.95;;
20709;SDS011;10516;51.518;9.864;2023-08-06T00:19:33;4.65;;;3.30;;
20709;SDS011;10516;51.518;9.864;2023-08-06T00:21:58;3.55;;;2.88;;
20709;SDS011;10516;51.518;9.864;2023-08-06T00:24:23;4.20;;;2.95;;
20709;SDS011;10516;51.518;9.864;2023-08-06T00:26:49;6.60;;;2.65;;
20709;SDS011;10516;51.518;9.864;2023-08-06T00:29:14;5.32;;;3.10;;
20709;SDS011;10516;51.518;9.864;2023-08-06T00:31:40;7.55;;;3.25;;
20709;SDS011;10516;51.518;9.864;2023-08-06T00:34:05;5.50;;;2.65;;
20709;SDS011;10516;51.518;9.864;2023-08-06T00:36:30;5.20;;;3.10;;
20709;SDS011;10516;51.518;9.864;2023-08-06T00:38:56;5.65;;;3.50;;
20709;SDS011;10516;51.518;9.864;2023-08-06T00:41:21;5.82;;;2.53;;
20709;SDS011;10516;51.518;9.864;2023-08-06T00:43:46;6.38;;;2.95;;
20709;SDS011;10516;51.518;9.864;2023-08-06T00:46:12;5.50;;;2.50;;
20709;SDS011;10516;51.518;9.864;2023-08-06T00:48:38;3.53;;;2.78;;
20709;SDS011;10516;51.518;9.864;2023-08-06T00:51:04;8.45;;;3.15;;
20709;SDS011;10516;51.518;9.864;2023-08-06T00:53:30;7.15;;;2.55;;
20709;SDS011;10516;51.518;9.864;2023-08-06T00:55:55;5.15;;;2.75;;
20709;SDS011;10516;51.518;9.864;2023-08-06T00:58:21;3.95;;;2.55;;
20709;SDS011;10516;51.518;9.864;2023-08-06T01:00:46;5.78;;;3.08;;
20709;SDS011;10516;51.518;9.864;2023-08-06T01:03:12;4.75;;;3.20;;
20709;SDS011;10516;51.518;9.864;2023-08-06T01:05:37;5.53;;;3.08;;
20709;SDS011;10516;51.518;9.864;2023-08-06T01:16:05;7.13;;;2.83;;
20709;SDS011;10516;51.518;9.864;2023-08-06T01:18:32;3.95;;;2.65;;
20709;SDS011;10516;51.518;9.864;2023-08-06T01:20:57;3.45;;;3.03;;
20709;SDS011;10516;51.518;9.864;2023-08-06T01:23:22;11.13;;;3.45;;
20709;SDS011;10516;51.518;9.864;2023-08-06T01:28:58;4.43;;;3.22;;
20709;SDS011;10516;51.518;9.864;2023-08-06T01:31:32;4.63;;;2.05;;
20709;SDS011;10516;51.518;9.864;2023-08-06T01:34:17;12.85;;;3.20;;
20709;SDS011;10516;51.518;9.864;2023-08-06T01:36:45;7.53;;;2.72;;
20709;SDS011;10516;51.518;9.864;2023-08-06T01:39:11;5.13;;;2.83;;
20709;SDS011;10516;51.518;9.864;2023-08-06T01:41:36;5.65;;;2.55;;
20709;SDS011;10516;51.518;9.864;2023-08-06T01:44:02;3.13;;;2.58;;
20709;SDS011;10516;51.518;9.864;2023-08-06T01:46:27;8.65;;;3.28;;
20709;SDS011;10516;51.518;9.864;2023-08-06T01:48:52;4.95;;;2.33;;
20709;SDS011;10516;51.518;9.864;2023-08-06T01:51:18;5.72;;;2.58;;
20709;SDS011;10516;51.518;9.864;2023-08-06T01:53:43;3.65;;;3.35;;
20709;SDS011;10516;51.518;9.864;2023-08-06T01:56:08;5.60;;;2.75;;
20709;SDS011;10516;51.518;9.864;2023-08-06T01:58:34;9.45;;;2.65;;
20709;SDS011;10516;51.518;9.864;2023-08-06T02:01:00;3.00;;;2.70;;
20709;SDS011;10516;51.518;9.864;2023-08-06T02:03:26;6.70;;;3.42;;
20709;SDS011;10516;51.518;9.864;2023-08-06T02:05:51;7.78;;;3.00;;
20709;SDS011;10516;51.518;9.864;2023-08-06T02:08:17;4.72;;;2.60;;
20709;SDS011;10516;51.518;9.864;2023-08-06T02:10:42;9.95;;;3.50;;
20709;SDS011;10516;51.518;9.864;2023-08-06T02:13:07;3.15;;;2.67;;
20709;SDS011;10516;51.518;9.864;2023-08-06T02:15:33;9.70;;;3.80;;
20709;SDS011;10516;51.518;9.864;2023-08-06T02:17:58;6.40;;;3.72;;
20709;SDS011;10516;51.518;9.864;2023-08-06T02:20:23;6.03;;;2.85;;
20709;SDS011;10516;51.518;9.864;2023-08-06T02:22:49;3.17;;;2.88;;
20709;SDS011;10516;51.518;9.864;2023-08-06T02:25:14;10.05;;;2.75;;
20709;SDS011;10516;51.518;9.864;2023-08-06T02:27:39;5.45;;;2.80;;
20709;SDS011;10516;51.518;9.864;2023-08-06T02:30:05;3.28;;;2.83;;
20709;SDS011;10516;51.518;9.864;2023-08-06T02:32:31;5.55;;;3.92;;
20709;SDS011;10516;51.518;9.864;2023-08-06T02:34:57;3.63;;;3.25;;
20709;SDS011;10516;51.518;9.864;2023-08-06T02:37:22;5.57;;;3.22;;
20709;SDS011;10516;51.518;9.864;2023-08-06T02:39:48;3.88;;;3.33;;
20709;SDS011;10516;51.518;9.864;2023-08-06T02:42:13;11.77;;;5.28;;
20709;SDS011;10516;51.518;9.864;2023-08-06T02:44:38;4.13;;;3.67;;
20709;SDS011;10516;51.518;9.864;2023-08-06T02:47:04;4.57;;;3.85;;
20709;SDS011;10516;51.518;9.864;2023-08-06T02:49:30;8.88;;;3.95;;
20709;SDS011;10516;51.518;9.864;2023-08-06T02:51:55;12.05;;;4.60;;
20709;SDS011;10516;51.518;9.864;2023-08-06T02:54:20;5.57;;;4.18;;
20709;SDS011;10516;51.518;9.864;2023-08-06T02:56:46;4.90;;;3.70;;
20709;SDS011;10516;51.518;9.864;2023-08-06T02:59:12;9.23;;;4.20;;
20709;SDS011;10516;51.518;9.864;2023-08-06T03:01:38;11.43;;;7.65;;
20709;SDS011;10516;51.518;9.864;2023-08-06T03:04:03;13.77;;;6.63;;
20709;SDS011;10516;51.518;9.864;2023-08-06T03:06:29;10.02;;;7.68;;
20709;SDS011;10516;51.518;9.864;2023-08-06T03:08:54;8.85;;;7.07;;
20709;SDS011;10516;51.518;9.864;2023-08-06T03:11:19;10.23;;;7.15;;
20709;SDS011;10516;51.518;9.864;2023-08-06T03:13:45;7.80;;;6.93;;
20709;SDS011;10516;51.518;9.864;2023-08-06T03:16:12;9.90;;;5.40;;
20709;SDS011;10516;51.518;9.864;2023-08-06T03:18:37;6.95;;;4.30;;
20709;SDS011;10516;51.518;9.864;2023-08-06T03:21:03;6.68;;;4.90;;
20709;SDS011;10516;51.518;9.864;2023-08-06T03:23:28;7.68;;;4.57;;
20709;SDS011;10516;51.518;9.864;2023-08-06T03:25:53;4.88;;;4.20;;
20709;SDS011;10516;51.518;9.864;2023-08-06T03:28:19;6.82;;;4.35;;
20709;SDS011;10516;51.518;9.864;2023-08-06T03:30:44;4.75;;;4.15;;
20709;SDS011;10516;51.518;9.864;2023-08-06T03:33:09;6.25;;;4.00;;
20709;SDS011;10516;51.518;9.864;2023-08-06T03:35:35;6.30;;;3.90;;
20709;SDS011;10516;51.518;9.864;2023-08-06T03:38:00;7.47;;;4.30;;
20709;SDS011;10516;51.518;9.864;2023-08-06T03:40:26;5.78;;;3.75;;
20709;SDS011;10516;51.518;9.864;2023-08-06T03:42:51;9.57;;;5.05;;
20709;SDS011;10516;51.518;9.864;2023-08-06T03:45:16;5.25;;;4.18;;
20709;SDS011;10516;51.518;9.864;2023-08-06T03:47:42;9.45;;;3.72;;
20709;SDS011;10516;51.518;9.864;2023-08-06T03:50:07;8.30;;;3.95;;
20709;SDS011;10516;51.518;9.864;2023-08-06T03:52:33;9.80;;;4.00;;
20709;SDS011;10516;51.518;9.864;2023-08-06T03:54:58;9.40;;;3.35;;
20709;SDS011;10516;51.518;9.864;2023-08-06T03:57:27;6.65;;;3.72;;
20709;SDS011;10516;51.518;9.864;2023-08-06T03:59:52;7.00;;;3.47;;
20709;SDS011;10516;51.518;9.864;2023-08-06T04:02:17;4.25;;;3.22;;
20709;SDS011;10516;51.518;9.864;2023-08-06T04:04:43;5.53;;;2.95;;
20709;SDS011;10516;51.518;9.864;2023-08-06T04:07:08;4.25;;;3.00;;
20709;SDS011;10516;51.518;9.864;2023-08-06T04:09:33;7.68;;;3.40;;
20709;SDS011;10516;51.518;9.864;2023-08-06T04:11:59;3.45;;;3.15;;
20709;SDS011;10516;51.518;9.864;2023-08-06T04:14:26;5.30;;;3.30;;
20709;SDS011;10516;51.518;9.864;2023-08-06T04:16:52;5.15;;;4.22;;
20709;SDS011;10516;51.518;9.864;2023-08-06T04:19:17;4.45;;;3.28;;
20709;SDS011;10516;51.518;9.864;2023-08-06T04:21:42;3.45;;;3.15;;
20709;SDS011;10516;51.518;9.864;2023-08-06T04:24:08;7.85;;;2.63;;
20709;SDS011;10516;51.518;9.864;2023-08-06T04:26:33;7.75;;;3.05;;
20709;SDS011;10516;51.518;9.864;2023-08-06T04:28:58;4.22;;;3.15;;
20709;SDS011;10516;51.518;9.864;2023-08-06T04:31:24;5.72;;;2.90;;
20709;SDS011;10516;51.518;9.864;2023-08-06T04:33:49;4.03;;;2.30;;
20709;SDS011;10516;51.518;9.864;2023-08-06T04:36:15;3.15;;;2.78;;
20709;SDS011;10516;51.518;9.864;2023-08-06T04:38:40;3.42;;;2.88;;
20709;SDS011;10516;51.518;9.864;2023-08-06T04:41:09;4.80;;;2.95;;
20709;SDS011;10516;51.518;9.864;2023-08-06T04:43:35;7.40;;;2.78;;
20709;SDS011;10516;51.518;9.864;2023-08-06T04:46:01;4.63;;;2.72;;
20709;SDS011;10516;51.518;9.864;2023-08-06T04:48:26;6.25;;;2.70;;
20709;SDS011;10516;51.518;9.864;2023-08-06T04:50:51;3.67;;;2.40;;
20709;SDS011;10516;51.518;9.864;2023-08-06T04:53:17;6.78;;;3.47;;
20709;SDS011;10516;51.518;9.864;2023-08-06T04:55:42;4.82;;;3.03;;
20709;SDS011;10516;51.518;9.864;2023-08-06T04:58:09;4.30;;;3.10;;
20709;SDS011;10516;51.518;9.864;2023-08-06T05:00:35;4.93;;;2.90;;
20709;SDS011;10516;51.518;9.864;2023-08-06T05:03:01;4.97;;;2.95;;
20709;SDS011;10516;51.518;9.864;2023-08-06T05:05:26;4.22;;;2.92;;
20709;SDS011;10516;51.518;9.864;2023-08-06T05:07:54;3.00;;;2.70;;
20709;SDS011;10516;51.518;9.864;2023-08-06T05:10:21;4.28;;;2.42;;
20709;SDS011;10516;51.518;9.864;2023-08-06T05:12:46;4.53;;;2.78;;
20709;SDS011;10516;51.518;9.864;2023-08-06T05:15:11;2.78;;;2.58;;
20709;SDS011;10516;51.518;9.864;2023-08-06T05:17:37;3.90;;;3.33;;
20709;SDS011;10516;51.518;9.864;2023-08-06T05:20:03;3.58;;;2.70;;
20709;SDS011;10516;51.518;9.864;2023-08-06T05:22:29;5.63;;;3.08;;
20709;SDS011;10516;51.518;9.864;2023-08-06T05:24:54;3.22;;;2.58;;
20709;SDS011;10516;51.518;9.864;2023-08-06T05:27:19;3.42;;;2.97;;
20709;SDS011;10516;51.518;9.864;2023-08-06T05:29:45;4.72;;;3.25;;
20709;SDS011;10516;51.518;9.864;2023-08-06T05:32:10;5.63;;;2.50;;
20709;SDS011;10516;51.518;9.864;2023-08-06T05:34:36;3.42;;;2.90;;
20709;SDS011;10516;51.518;9.864;2023-08-06T05:37:02;5.65;;;2.72;;
20709;SDS011;10516;51.518;9.864;2023-08-06T05:39:28;5.45;;;3.45;;
20709;SDS011;10516;51.518;9.864;2023-08-06T05:41:53;9.50;;;3.50;;
20709;SDS011;10516;51.518;9.864;2023-08-06T05:44:20;4.55;;;3.55;;
20709;SDS011;10516;51.518;9.864;2023-08-06T05:46:45;4.75;;;2.70;;
20709;SDS011;10516;51.518;9.864;2023-08-06T05:49:10;4.90;;;2.97;;
20709;SDS011;10516;51.518;9.864;2023-08-06T05:51:37;3.67;;;3.03;;
20709;SDS011;10516;51.518;9.864;2023-08-06T05:54:03;3.92;;;3.13;;
20709;SDS011;10516;51.518;9.864;2023-08-06T05:56:28;3.30;;;2.83;;
20709;SDS011;10516;51.518;9.864;2023-08-06T05:58:53;4.60;;;2.75;;
20709;SDS011;10516;51.518;9.864;2023-08-06T06:01:19;8.02;;;3.05;;
20709;SDS011;10516;51.518;9.864;2023-08-06T06:03:44;4.70;;;3.08;;
20709;SDS011;10516;51.518;9.864;2023-08-06T06:06:09;6.40;;;2.90;;
20709;SDS011;10516;51.518;9.864;2023-08-06T06:08:35;3.47;;;3.17;;
20709;SDS011;10516;51.518;9.864;2023-08-06T06:11:00;3.47;;;3.17;;
20709;SDS011;10516;51.518;9.864;2023-08-06T06:13:26;5.18;;;3.20;;
20709;SDS011;10516;51.518;9.864;2023-08-06T06:15:53;8.45;;;2.65;;
20709;SDS011;10516;51.518;9.864;2023-08-06T06:18:20;3.67;;;3.15;;
20709;SDS011;10516;51.518;9.864;2023-08-06T06:20:45;4.53;;;3.03;;
20709;SDS011;10516;51.518;9.864;2023-08-06T06:23:10;3.67;;;3.38;;
20709;SDS011;10516;51.518;9.864;2023-08-06T06:25:36;8.68;;;3.70;;
20709;SDS011;10516;51.518;9.864;2023-08-06T06:28:01;6.40;;;3.50;;
20709;SDS011;10516;51.518;9.864;2023-08-06T06:30:27;5.60;;;2.95;;
20709;SDS011;10516;51.518;9.864;2023-08-06T06:32:52;5.55;;;3.30;;
20709;SDS011;10516;51.518;9.864;2023-08-06T06:35:17;4.70;;;3.65;;
20709;SDS011;10516;51.518;9.864;2023-08-06T06:37:43;2.90;;;2.55;;
20709;SDS011;10516;51.518;9.864;2023-08-06T06:40:08;4.68;;;3.53;;
20709;SDS011;10516;51.518;9.864;2023-08-06T06:42:34;4.78;;;3.45;;
20709;SDS011;10516;51.518;9.864;2023-08-06T06:44:59;6.82;;;3.55;;
20709;SDS011;10516;51.518;9.864;2023-08-06T06:47:25;4.13;;;3.70;;
20709;SDS011;10516;51.518;9.864;2023-08-06T06:49:50;5.90;;;3.58;;
20709;SDS011;10516;51.518;9.864;2023-08-06T06:52:16;3.67;;;3.38;;
20709;SDS011;10516;51.518;9.864;2023-08-06T06:54:41;3.80;;;2.75;;
20709;SDS011;10516;51.518;9.864;2023-08-06T06:57:07;3.78;;;3.28;;
20709;SDS011;10516;51.518;9.864;2023-08-06T06:59:32;4.18;;;3.78;;
20709;SDS011;10516;51.518;9.864;2023-08-06T07:01:57;3.22;;;2.92;;
20709;SDS011;10516;51.518;9.864;2023-08-06T07:04:23;4.43;;;3.15;;
20709;SDS011;10516;51.518;9.864;2023-08-06T07:06:48;3.20;;;2.90;;
20709;SDS011;10516;51.518;9.864;2023-08-06T07:09:13;7.05;;;4.00;;
20709;SDS011;10516;51.518;9.864;2023-08-06T07:11:39;3.13;;;2.83;;
20709;SDS011;10516;51.518;9.864;2023-08-06T07:14:04;4.07;;;3.70;;
20709;SDS011;10516;51.518;9.864;2023-08-06T07:16:29;6.55;;;3.03;;
20709;SDS011;10516;51.518;9.864;2023-08-06T07:18:55;3.88;;;3.40;;
20709;SDS011;10516;51.518;9.864;2023-08-06T07:21:20;8.40;;;3.88;;
20709;SDS011;10516;51.518;9.864;2023-08-06T07:23:46;2.80;;;2.60;;
20709;SDS011;10516;51.518;9.864;2023-08-06T07:26:11;5.55;;;4.40;;
20709;SDS011;10516;51.518;9.864;2023-08-06T07:28:36;3.55;;;3.25;;
20709;SDS011;10516;51.518;9.864;2023-08-06T07:31:04;4.47;;;3.67;;
20709;SDS011;10516;51.518;9.864;2023-08-06T07:33:30;5.65;;;3.25;;
20709;SDS011;10516;51.518;9.864;2023-08-06T07:35:55;3.33;;;3.03;;
20709;SDS011;10516;51.518;9.864;2023-08-06T07:38:21;4.13;;;3.13;;
20709;SDS011;10516;51.518;9.864;2023-08-06T07:40:46;3.78;;;3.47;;
20709;SDS011;10516;51.518;9.864;2023-08-06T07:43:12;3.13;;;2.83;;
20709;SDS011;10516;51.518;9.864;2023-08-06T07:45:37;3.75;;;3.03;;
20709;SDS011;10516;51.518;9.864;2023-08-06T07:48:03;4.57;;;3.35;;
20709;SDS011;10516;51.518;9.864;2023-08-06T07:50:29;4.00;;;3.25;;
20709;SDS011;10516;51.518;9.864;2023-08-06T07:52:54;7.70;;;3.28;;
20709;SDS011;10516;51.518;9.864;2023-08-06T07:55:20;5.00;;;4.00;;
20709;SDS011;10516;51.518;9.864;2023-08-06T07:57:45;3.88;;;3.50;;
20709;SDS011;10516;51.518;9.864;2023-08-06T08:00:10;6.45;;;2.85;;
20709;SDS011;10516;51.518;9.864;2023-08-06T08:02:36;3.58;;;3.08;;
20709;SDS011;10516;51.518;9.864;2023-08-06T08:05:01;6.13;;;3.75;;
20709;SDS011;10516;51.518;9.864;2023-08-06T08:07:27;3.65;;;3.35;;
20709;SDS011;10516;51.518;9.864;2023-08-06T08:09:55;5.75;;;3.08;;
20709;SDS011;10516;51.518;9.864;2023-08-06T08:12:20;5.65;;;3.05;;
20709;SDS011;10516;51.518;9.864;2023-08-06T08:14:46;4.22;;;3.80;;
20709;SDS011;10516;51.518;9.864;2023-08-06T08:17:12;4.47;;;3.42;;
20709;SDS011;10516;51.518;9.864;2023-08-06T08:19:38;4.60;;;3.88;;
20709;SDS011;10516;51.518;9.864;2023-08-06T08:22:03;4.70;;;3.40;;
20709;SDS011;10516;51.518;9.864;2023-08-06T08:24:28;3.55;;;3.13;;
20709;SDS011;10516;51.518;9.864;2023-08-06T08:26:55;3.60;;;3.03;;
20709;SDS011;10516;51.518;9.864;2023-08-06T08:29:21;3.15;;;2.80;;
20709;SDS011;10516;51.518;9.864;2023-08-06T08:31:46;3.00;;;2.72;;
20709;SDS011;10516;51.518;9.864;2023-08-06T08:34:14;6.13;;;3.40;;
20709;SDS011;10516;51.518;9.864;2023-08-06T08:36:40;3.42;;;2.85;;
20709;SDS011;10516;51.518;9.864;2023-08-06T08:39:05;3.15;;;2.85;;
20709;SDS011;10516;51.518;9.864;2023-08-06T08:41:31;2.95;;;2.65;;
20709;SDS011;10516;51.518;9.864;2023-08-06T08:43:58;2.88;;;2.63;;
20709;SDS011;10516;51.518;9.864;2023-08-06T08:46:28;4.20;;;2.50;;
20709;SDS011;10516;51.518;9.864;2023-08-06T08:48:55;3.17;;;2.70;;
20709;SDS011;10516;51.518;9.864;2023-08-06T08:51:22;5.00;;;2.47;;
20709;SDS011;10516;51.518;9.864;2023-08-06T08:53:48;3.13;;;2.58;;
20709;SDS011;10516;51.518;9.864;2023-08-06T08:56:16;3.05;;;2.80;;
20709;SDS011;10516;51.518;9.864;2023-08-06T08:58:41;3.47;;;2.80;;
20709;SDS011;10516;51.518;9.864;2023-08-06T09:01:07;3.03;;;2.30;;
20709;SDS011;10516;51.518;9.864;2023-08-06T09:03:34;2.30;;;2.10;;
20709;SDS011;10516;51.518;9.864;2023-08-06T09:06:01;3.90;;;2.53;;
20709;SDS011;10516;51.518;9.864;2023-08-06T09:08:30;4.32;;;3.10;;
20709;SDS011;10516;51.518;9.864;2023-08-06T09:11:01;2.28;;;2.05;;
20709;SDS011;10516;51.518;9.864;2023-08-06T09:13:27;4.95;;;2.65;;
20709;SDS011;10516;51.518;9.864;2023-08-06T09:15:53;3.95;;;2.67;;
20709;SDS011;10516;51.518;9.864;2023-08-06T09:18:29;2.80;;;2.45;;
20709;SDS011;10516;51.518;9.864;2023-08-06T09:20:55;7.90;;;3.30;;
20709;SDS011;10516;51.518;9.864;2023-08-06T09:23:27;4.10;;;2.50;;
20709;SDS011;10516;51.518;9.864;2023-08-06T09:25:54;3.55;;;2.65;;
20709;SDS011;10516;51.518;9.864;2023-08-06T09:28:20;3.83;;;2.97;;
20709;SDS011;10516;51.518;9.864;2023-08-06T09:30:46;8.88;;;3.65;;
20709;SDS011;10516;51.518;9.864;2023-08-06T09:33:14;3.28;;;2.30;;
20709;SDS011;10516;51.518;9.864;2023-08-06T09:35:43;6.07;;;2.50;;
20709;SDS011;10516;51.518;9.864;2023-08-06T09:38:09;2.58;;;2.38;;
20709;SDS011;10516;51.518;9.864;2023-08-06T09:40:35;3.58;;;2.40;;
20709;SDS011;10516;51.518;9.864;2023-08-06T09:43:02;2.55;;;2.35;;
20709;SDS011;10516;51.518;9.864;2023-08-06T09:45:29;3.38;;;2.00;;
20709;SDS011;10516;51.518;9.864;2023-08-06T09:47:57;2.38;;;2.20;;
20709;SDS011;10516;51.518;9.864;2023-08-06T09:50:23;3.88;;;2.42;;
20709;SDS011;10516;51.518;9.864;2023-08-06T09:52:57;2.53;;;2.33;;
20709;SDS011;10516;51.518;9.864;2023-08-06T09:55:24;3.08;;;2.08;;
20709;SDS011;10516;51.518;9.864;2023-08-06T09:57:51;2.40;;;2.20;;
20709;SDS011;10516;51.518;9.864;2023-08-06T10:00:17;3.88;;;2.20;;
20709;SDS011;10516;51.518;9.864;2023-08-06T10:02:42;2.95;;;2.35;;
20709;SDS011;10516;51.518;9.864;2023-08-06T10:05:08;2.67;;;2.25;;
20709;SDS011;10516;51.518;9.864;2023-08-06T10:07:34;3.42;;;2.40;;
20709;SDS011;10516;51.518;9.864;2023-08-06T10:10:00;2.38;;;2.10;;
20709;SDS011;10516;51.518;9.864;2023-08-06T10:12:28;3.35;;;2.50;;
20709;SDS011;10516;51.518;9.864;2023-08-06T10:14:57;2.72;;;2.38;;
20709;SDS011;10516;51.518;9.864;2023-08-06T10:17:24;2.90;;;2.22;;
20709;SDS011;10516;51.518;9.864;2023-08-06T10:19:50;4.10;;;2.35;;
20709;SDS011;10516;51.518;9.864;2023-08-06T10:22:17;3.05;;;2.22;;
20709;SDS011;10516;51.518;9.864;2023-08-06T10:24:49;4.78;;;2.58;;
20709;SDS011;10516;51.518;9.864;2023-08-06T10:27:29;2.67;;;2.47;;
20709;SDS011;10516;51.518;9.864;2023-08-06T10:30:20;2.40;;;2.20;;
20709;SDS011;10516;51.518;9.864;2023-08-06T10:32:46;2.80;;;2.10;;
20709;SDS011;10516;51.518;9.864;2023-08-06T10:35:29;4.28;;;2.30;;
20709;SDS011;10516;51.518;9.864;2023-08-06T10:38:12;2.60;;;2.05;;
20709;SDS011;10516;51.518;9.864;2023-08-06T10:40:40;2.08;;;1.88;;
20709;SDS011;10516;51.518;9.864;2023-08-06T10:43:07;3.33;;;2.47;;
20709;SDS011;10516;51.518;9.864;2023-08-06T10:45:36;2.40;;;2.17;;
20709;SDS011;10516;51.518;9.864;2023-08-06T10:48:02;6.00;;;2.33;;
20709;SDS011;10516;51.518;9.864;2023-08-06T10:50:29;2.95;;;2.08;;
20709;SDS011;10516;51.518;9.864;2023-08-06T10:52:56;5.18;;;2.22;;
20709;SDS011;10516;51.518;9.864;2023-08-06T10:55:25;2.47;;;2.15;;
20709;SDS011;10516;51.518;9.864;2023-08-06T10:57:52;3.53;;;2.67;;
20709;SDS011;10516;51.518;9.864;2023-08-06T11:00:18;3.33;;;2.25;;
20709;SDS011;10516;51.518;9.864;2023-08-06T11:02:46;2.30;;;2.10;;
20709;SDS011;10516;51.518;9.864;2023-08-06T11:05:12;3.08;;;2.20;;
20709;SDS011;10516;51.518;9.864;2023-08-06T11:07:38;2.05;;;1.95;;
20709;SDS011;10516;51.518;9.864;2023-08-06T11:10:04;2.00;;;1.80;;
20709;SDS011;10516;51.518;9.864;2023-08-06T11:12:31;2.42;;;2.20;;
20709;SDS011;10516;51.518;9.864;2023-08-06T11:14:57;2.85;;;2.30;;
20709;SDS011;10516;51.518;9.864;2023-08-06T11:17:23;3.88;;;2.35;;
20709;SDS011;10516;51.518;9.864;2023-08-06T11:19:49;2.80;;;1.90;;
20709;SDS011;10516;51.518;9.864;2023-08-06T11:22:15;2.08;;;1.60;;
20709;SDS011;10516;51.518;9.864;2023-08-06T11:24:41;2.15;;;1.95;;
20709;SDS011;10516;51.518;9.864;2023-08-06T11:27:13;5.20;;;2.10;;
20709;SDS011;10516;51.518;9.864;2023-08-06T11:29:39;5.53;;;3.33;;
20709;SDS011;10516;51.518;9.864;2023-08-06T11:32:05;2.70;;;2.15;;
20709;SDS011;10516;51.518;9.864;2023-08-06T11:34:31;4.18;;;2.78;;
20709;SDS011;10516;51.518;9.864;2023-08-06T11:36:56;3.00;;;2.03;;
20709;SDS011;10516;51.518;9.864;2023-08-06T11:39:22;2.22;;;1.90;;
20709;SDS011;10516;51.518;9.864;2023-08-06T11:41:47;2.08;;;1.90;;
20709;SDS011;10516;51.518;9.864;2023-08-06T11:44:13;2.88;;;2.30;;
20709;SDS011;10516;51.518;9.864;2023-08-06T11:46:57;2.30;;;2.10;;
20709;SDS011;10516;51.518;9.864;2023-08-06T11:49:42;4.32;;;1.85;;
20709;SDS011;10516;51.518;9.864;2023-08-06T11:52:19;2.60;;;2.03;;
20709;SDS011;10516;51.518;9.864;2023-08-06T11:57:37;3.78;;;1.88;;
20709;SDS011;10516;51.518;9.864;2023-08-06T12:00:05;3.35;;;2.08;;
20709;SDS011;10516;51.518;9.864;2023-08-06T12:02:33;2.55;;;2.20;;
20709;SDS011;10516;51.518;9.864;2023-08-06T12:07:36;4.15;;;1.90;;
20709;SDS011;10516;51.518;9.864;2023-08-06T12:10:03;1.83;;;1.27;;
20709;SDS011;10516;51.518;9.864;2023-08-06T12:12:29;2.45;;;1.55;;
20709;SDS011;10516;51.518;9.864;2023-08-06T12:14:55;2.85;;;1.52;;
20709;SDS011;10516;51.518;9.864;2023-08-06T12:17:21;1.77;;;1.42;;
20709;SDS011;10516;51.518;9.864;2023-08-06T12:19:47;2.58;;;1.90;;
20709;SDS011;10516;51.518;9.864;2023-08-06T12:22:12;3.15;;;1.80;;
20709;SDS011;10516;51.518;9.864;2023-08-06T12:24:39;1.90;;;1.60;;
20709;SDS011;10516;51.518;9.864;2023-08-06T12:27:05;4.50;;;2.25;;
20709;SDS011;10516;51.518;9.864;2023-08-06T12:29:31;4.40;;;2.25;;
20709;SDS011;10516;51.518;9.864;2023-08-06T12:31:56;2.72;;;2.30;;
20709;SDS011;10516;51.518;9.864;2023-08-06T12:34:22;3.05;;;2.00;;
20709;SDS011;10516;51.518;9.864;2023-08-06T12:36:47;2.65;;;1.92;;
20709;SDS011;10516;51.518;9.864;2023-08-06T12:39:12;13.55;;;2.88;;
20709;SDS011;10516;51.518;9.864;2023-08-06T12:41:38;5.03;;;2.05;;
20709;SDS011;10516;51.518;9.864;2023-08-06T12:44:03;3.53;;;2.10;;
20709;SDS011;10516;51.518;9.864;2023-08-06T12:46:28;4.35;;;2.10;;
20709;SDS011;10516;51.518;9.864;2023-08-06T12:48:54;3.90;;;1.80;;
20709;SDS011;10516;51.518;9.864;2023-08-06T12:51:19;5.60;;;1.77;;
20709;SDS011;10516;51.518;9.864;2023-08-06T12:53:44;2.25;;;1.73;;
20709;SDS011;10516;51.518;9.864;2023-08-06T12:56:10;4.43;;;2.20;;
20709;SDS011;10516;51.518;9.864;2023-08-06T12:58:35;1.70;;;1.60;;
20709;SDS011;10516;51.518;9.864;2023-08-06T13:01:00;3.90;;;1.95;;
20709;SDS011;10516;51.518;9.864;2023-08-06T13:03:26;4.65;;;1.92;;
20709;SDS011;10516;51.518;9.864;2023-08-06T13:05:52;5.07;;;1.98;;
20709;SDS011;10516;51.518;9.864;2023-08-06T13:08:17;2.22;;;1.80;;
20709;SDS011;10516;51.518;9.864;2023-08-06T13:10:42;3.25;;;1.67;;
20709;SDS011;10516;51.518;9.864;2023-08-06T13:13:08;3.90;;;2.20;;
20709;SDS011;10516;51.518;9.864;2023-08-06T13:15:35;2.13;;;1.92;;
20709;SDS011;10516;51.518;9.864;2023-08-06T13:18:00;1.85;;;1.75;;
20709;SDS011;10516;51.518;9.864;2023-08-06T13:20:26;3.28;;;1.95;;
20709;SDS011;10516;51.518;9.864;2023-08-06T13:22:52;3.47;;;1.75;;
20709;SDS011;10516;51.518;9.864;2023-08-06T13:25:18;5.88;;;2.15;;
20709;SDS011;10516;51.518;9.864;2023-08-06T13:27:44;2.83;;;2.42;;
20709;SDS011;10516;51.518;9.864;2023-08-06T13:30:10;3.90;;;2.35;;
20709;SDS011;10516;51.518;9.864;2023-08-06T13:32:36;3.38;;;2.25;;
20709;SDS011;10516;51.518;9.864;2023-08-06T13:35:05;2.97;;;2.08;;
20709;SDS011;10516;51.518;9.864;2023-08-06T13:37:30;5.68;;;3.72;;
20709;SDS011;10516;51.518;9.864;2023-08-06T13:39:56;6.18;;;2.60;;
20709;SDS011;10516;51.518;9.864;2023-08-06T13:42:21;9.93;;;3.47;;
20709;SDS011;10516;51.518;9.864;2023-08-06T13:44:47;10.48;;;4.03;;
20709;SDS011;10516;51.518;9.864;2023-08-06T13:47:12;7.18;;;2.95;;
20709;SDS011;10516;51.518;9.864;2023-08-06T13:49:37;4.50;;;3.47;;
20709;SDS011;10516;51.518;9.864;2023-08-06T13:52:03;9.13;;;3.00;;
20709;SDS011;10516;51.518;9.864;2023-08-06T13:54:29;7.68;;;3.83;;
20709;SDS011;10516;51.518;9.864;2023-08-06T13:56:54;11.10;;;3.80;;
20709;SDS011;10516;51.518;9.864;2023-08-06T13:59:20;11.18;;;4.10;;
20709;SDS011;10516;51.518;9.864;2023-08-06T14:01:45;4.47;;;3.83;;
20709;SDS011;10516;51.518;9.864;2023-08-06T14:04:12;10.77;;;3.83;;
20709;SDS011;10516;51.518;9.864;2023-08-06T14:06:37;8.63;;;3.70;;
20709;SDS011;10516;51.518;9.864;2023-08-06T14:09:03;10.20;;;4.05;;
20709;SDS011;10516;51.518;9.864;2023-08-06T14:11:28;6.18;;;4.15;;
20709;SDS011;10516;51.518;9.864;2023-08-06T14:13:54;10.63;;;4.43;;
20709;SDS011;10516;51.518;9.864;2023-08-06T14:16:19;7.00;;;3.90;;
20709;SDS011;10516;51.518;9.864;2023-08-06T14:18:44;7.10;;;4.32;;
20709;SDS011;10516;51.518;9.864;2023-08-06T14:21:10;6.43;;;3.70;;
20709;SDS011;10516;51.518;9.864;2023-08-06T14:23:35;6.05;;;4.30;;
20709;SDS011;10516;51.518;9.864;2023-08-06T14:26:01;7.88;;;4.05;;
20709;SDS011;10516;51.518;9.864;2023-08-06T14:28:26;6.53;;;3.53;;
20709;SDS011;10516;51.518;9.864;2023-08-06T14:30:52;12.13;;;3.83;;
20709;SDS011;10516;51.518;9.864;2023-08-06T14:33:17;18.20;;;3.80;;
20709;SDS011;10516;51.518;9.864;2023-08-06T14:35:42;17.63;;;4.65;;
20709;SDS011;10516;51.518;9.864;2023-08-06T14:38:08;14.25;;;4.40;;
20709;SDS011;10516;51.518;9.864;2023-08-06T14:40:33;12.32;;;4.22;;
20709;SDS011;10516;51.518;9.864;2023-08-06T14:43:02;14.27;;;4.35;;
20709;SDS011;10516;51.518;9.864;2023-08-06T14:45:28;17.13;;;4.68;;
20709;SDS011;10516;51.518;9.864;2023-08-06T14:47:53;6.88;;;3.42;;
20709;SDS011;10516;51.518;9.864;2023-08-06T14:50:19;7.75;;;3.17;;
20709;SDS011;10516;51.518;9.864;2023-08-06T14:52:44;8.52;;;3.60;;
20709;SDS011;10516;51.518;9.864;2023-08-06T14:55:09;10.02;;;3.88;;
20709;SDS011;10516;51.518;9.864;2023-08-06T14:57:35;9.05;;;3.58;;